Galveston, TX (77550)

11:53 AM CDT on October 24, 2014 (GMT -0500)
Scholes International At Galveston | Change Station
CLOSE
Current Station
Airport
Location: Galveston,
Elevation: 3 ft
Nearby Weather Stations

Elev 3 ft 29.27 °N, 94.86 °W | Updated 1 hour ago

Clear
Clear
70 °F
Feels Like 70 °F
N
12
Wind Variable Wind from NNE

Today
High -- | Low -- °F
--% Chance of Precip.
Yesterday
High -- | Low -- °F
Precip. -- in
7:26 AM 6:39 PM
New Moon, 1% visible
Pressure 30.17 in
Visibility 10.0 miles
Clouds Clear
Dew Point 56 °F
Humidity 61%
Rainfall 0.00 in
Snow Depth Not available.
UV 5 out of 12
Pollen 4.90 out of 12
Ozone Good
PM2.5 Moderate
Flu Activity Sporadic
METAR KGLS 241552Z 02010KT 10SM CLR 21/13 A3017 RMK AO2 SLP217 T02110133

More Conditions Fewer Conditions

Pressure 30.17 in
Visibility 10.0 miles
Clouds Clear
Dew Point 56 °F
Humidity 61%
Rainfall 0.00 in
Snow Depth Not available.
UV 5 out of 12
Pollen 4.90 out of 12
Ozone Good
PM2.5 Moderate
Flu Activity Sporadic
METAR KGLS 241552Z 02010KT 10SM CLR 21/13 A3017 RMK AO2 SLP217 T02110133

More Conditions Fewer Conditions

10-Day Weather Forecast

Almanac

Astronomy

Oct. 24, 2014 Rise Set
Actual Time 7:26 AM CDT 6:39 PM CDT
Civil Twilight 7:02 AM CDT 7:04 PM CDT
Nautical Twilight 6:34 AM CDT 7:31 PM CDT
Astronomical Twilight 6:06 AM CDT 7:59 PM CDT
Moon 8:03 AM CDT 7:24 PM CDT
Length of Visible Light 12h 01m
Length of Day
11h 13m
Tomorrow will be 1m 37s shorter.
New Moon, 1% of the Moon is Illuminated
Today
New Moon
Oct 30
First Quarter
Nov 6
Full
Nov 14
Last Quarter
Nov 22
New

Today's Extremes

State Highs State Lows

Community

WunderPhotos

Upload Photos

1,764,609 photos uploaded!

WunderBlogs® & News

By Dr. Jeff Masters
Director of Meteorology, Weather Underground
By Kari Strenfel
Meteorologist, Weather Underground
By Christopher C. Burt
Weather Historian, Weather Underground
October 24, 2014
October 24, 2014
October 24, 2014

Nearby

Air Quality

  Air Quality AQ Index Pollutant
Yesterday Moderate
PM2.5
Yesterday Good
OZONE
Current Moderate
PM2.5
Current Good
OZONE
Friday Moderate
OZONE
Friday Good
PM10
Saturday Unhealthy for Sensitive Groups
OZONE
Saturday Good
PM10
Sunday Moderate
OZONE
Sunday Good
PM10
Monday Good
OZONE
Monday Good
PM10
Tuesday Good
OZONE
Tuesday Good
PM10

Snow Depth

Station Depth Elevation
No new snow has been reported.

Earthquake Activity

City Distance Mag. Time & Date
No recent earthquake activity has been reported nearby.
Minimum magnitude displayed is 2.5.

Coastal Water Temperatures

Place Temperature
Galveston Bay (North Jetty), TX 73.9 °F
USCG Freeport, TX 75.0 °F
Galveston Pier TX 73.0 °F
Eagle Point, TX 72.0 °F
Rollover Pass, TX 72.0 °F

Nearby Weather Stations